KAKQ/AKQ METAR and TAF weather

Enter ICAO airport designator
Station Type Date Time Source
KAKQ METAR 2022/06/27 16:54 UTC NOAA

KAKQ 271654Z AUTO VRB06KT 10SM SCT031 SCT120 31/23 A3001 RMK AO2 SLP161 T03060228


Station Type Date Time Source
KAKQ Decoded METAR 2022/06/27 16:54 UTC NOAA

WAKEFIELD MUNICIPAL AIRPOR, VA, United States (KAKQ) 36-59N 077-00W 33M
Jun 27, 2022 - 12:54 PM EDT / 2022.06.27 1654 UTC
Wind: Variable at 7 MPH (6 KT):0
Visibility: 10 mile(s):0
Sky conditions: partly cloudy
Temperature: 87.1 F (30.6 C)
Heat index: 94.5 F (34.7 C):1
Dew Point: 73.0 F (22.8 C)
Relative Humidity: 63%
Pressure (altimeter): 30.01 in. Hg (1016 hPa)
ob: KAKQ 271654Z AUTO VRB06KT 10SM SCT031 SCT120 31/23 A3001 RMK AO2 SLP161 T03060228
cycle: 17

Station Type Date Time Source
KAKQ TAF UTC NOAA

Error!

Example: see airport list